createdAt,value
2022-11-24T00:00:44.439Z,83.97
2022-11-24T00:03:51.792Z,83.11
2022-11-24T00:06:53.478Z,83.31
2022-11-24T00:09:55.039Z,82.80
2022-11-24T00:12:56.622Z,82.50
2022-11-24T00:16:24.822Z,82.13
2022-11-24T00:19:26.463Z,81.06
2022-11-24T00:22:27.993Z,81.87
2022-11-24T00:25:29.565Z,80.20
2022-11-24T00:28:32.795Z,80.69
2022-11-24T00:31:40.631Z,81.27
2022-11-24T00:34:42.329Z,81.97
2022-11-24T00:37:43.985Z,82.96
2022-11-24T00:40:45.553Z,82.58
2022-11-24T00:43:47.168Z,84.12
2022-11-24T00:46:48.946Z,83.54
2022-11-24T00:49:50.683Z,85.98
2022-11-24T00:52:52.320Z,85.10
2022-11-24T00:55:54.836Z,83.58
2022-11-24T00:58:56.756Z,83.84
2022-11-24T01:01:58.446Z,83.92
2022-11-24T01:05:00.114Z,85.26
2022-11-24T01:08:01.726Z,86.08
2022-11-24T01:11:11.301Z,87.11
2022-11-24T01:14:12.968Z,86.41
2022-11-24T01:17:14.527Z,86.59
2022-11-24T01:20:16.265Z,86.10
2022-11-24T01:23:17.863Z,85.94
2022-11-24T01:26:21.576Z,85.74
2022-11-24T01:29:23.327Z,84.14
2022-11-24T01:32:24.909Z,83.49
2022-11-24T01:35:26.677Z,83.03
2022-11-24T01:38:28.439Z,82.10
2022-11-24T01:41:30.138Z,82.80
2022-11-24T01:44:32.108Z,83.63
2022-11-24T01:47:40.906Z,82.58
2022-11-24T01:50:43.877Z,83.01
2022-11-24T01:53:51.765Z,82.97
2022-11-24T01:56:56.941Z,83.57
2022-11-24T02:00:06.268Z,83.47
2022-11-24T02:03:20.378Z,84.10
2022-11-24T02:06:33.267Z,85.09
2022-11-24T02:09:42.977Z,86.64
2022-11-24T02:12:47.578Z,85.03
2022-11-24T02:15:49.530Z,83.36
2022-11-24T02:18:51.587Z,82.82
2022-11-24T02:21:53.170Z,81.73
2022-11-24T02:25:03.577Z,80.41
2022-11-24T02:28:08.023Z,80.37
2022-11-24T02:31:09.757Z,79.65
2022-11-24T02:34:11.388Z,79.92
2022-11-24T02:37:13.136Z,79.64
2022-11-24T02:40:16.659Z,79.96
2022-11-24T02:43:23.337Z,79.77
2022-11-24T02:46:25.063Z,81.71
2022-11-24T02:49:26.791Z,82.36
2022-11-24T02:52:28.425Z,81.86
2022-11-24T02:55:30.146Z,81.42
2022-11-24T02:58:32.194Z,85.41
2022-11-24T03:01:33.843Z,85.68
2022-11-24T03:04:35.847Z,84.29
2022-11-24T03:07:37.927Z,84.56
2022-11-24T03:10:39.900Z,84.66
2022-11-24T03:13:41.604Z,85.59
2022-11-24T03:16:43.212Z,88.39
2022-11-24T03:19:44.984Z,88.08
2022-11-24T03:22:46.586Z,88.17
2022-11-24T03:25:48.226Z,87.32
2022-11-24T03:28:50.305Z,86.96
2022-11-24T03:31:51.882Z,87.31
2022-11-24T03:34:53.476Z,86.14
2022-11-24T03:37:55.149Z,85.68
2022-11-24T03:40:56.747Z,86.02
2022-11-24T03:43:58.432Z,87.07
2022-11-24T03:47:00.051Z,88.94
2022-11-24T03:50:01.713Z,89.81
2022-11-24T03:53:03.353Z,90.60
2022-11-24T03:56:05.049Z,92.39
2022-11-24T03:59:06.697Z,91.59
2022-11-24T04:02:08.325Z,92.59
2022-11-24T04:05:10.418Z,93.09
2022-11-24T04:08:12.090Z,92.56
2022-11-24T04:11:33.653Z,92.78
2022-11-24T04:14:35.750Z,93.66
2022-11-24T04:17:37.681Z,93.53
2022-11-24T04:20:40.719Z,92.21
2022-11-24T04:23:42.505Z,93.02
2022-11-24T04:26:44.176Z,92.96
2022-11-24T04:29:45.883Z,92.29
2022-11-24T04:32:47.961Z,94.12
2022-11-24T04:35:53.451Z,95.70
2022-11-24T04:39:24.377Z,95.28
2022-11-24T04:42:16.673Z,94.46
2022-11-24T04:45:18.436Z,94.22
2022-11-24T04:48:20.075Z,94.51
2022-11-24T04:51:21.633Z,93.76
2022-11-24T04:54:23.976Z,94.18
2022-11-24T04:57:26.834Z,92.23
2022-11-24T05:00:28.429Z,93.54
2022-11-24T05:03:30.376Z,92.78
2022-11-24T05:06:33.229Z,93.45
2022-11-24T05:09:59.208Z,92.44
2022-11-24T05:13:02.550Z,91.79
2022-11-24T05:16:04.567Z,94.82
2022-11-24T05:19:06.240Z,95.83
2022-11-24T05:22:07.904Z,95.26
2022-11-24T05:25:09.830Z,95.92
2022-11-24T05:28:11.529Z,97.29
2022-11-24T05:31:13.213Z,96.03
2022-11-24T05:34:15.510Z,97.50
2022-11-24T05:37:17.760Z,97.79
2022-11-24T05:40:19.570Z,96.85
2022-11-24T05:43:21.261Z,97.67
2022-11-24T05:46:22.876Z,99.26
2022-11-24T05:49:24.510Z,99.90
2022-11-24T05:52:26.118Z,99.03
2022-11-24T05:55:27.824Z,98.18
2022-11-24T05:58:29.862Z,98.49
2022-11-24T06:01:31.526Z,98.98
2022-11-24T06:04:33.457Z,100.00
2022-11-24T06:07:35.535Z,100.00
2022-11-24T06:10:37.230Z,100.00
2022-11-24T06:13:41.868Z,100.00
2022-11-24T06:16:43.649Z,100.00
2022-11-24T06:19:47.888Z,100.00
2022-11-24T06:22:49.709Z,100.00
2022-11-24T06:25:51.676Z,100.00
2022-11-24T06:28:53.379Z,100.00
2022-11-24T06:31:55.067Z,100.00
2022-11-24T06:34:56.782Z,100.00
2022-11-24T06:37:58.744Z,100.00
2022-11-24T06:41:06.523Z,100.00
2022-11-24T06:44:08.294Z,100.00
2022-11-24T06:47:09.888Z,100.00
2022-11-24T06:50:11.824Z,100.00
2022-11-24T06:53:13.417Z,100.00
2022-11-24T06:56:19.239Z,100.00
2022-11-24T06:59:20.947Z,100.00
2022-11-24T07:02:22.926Z,100.00
2022-11-24T07:05:24.513Z,100.00
2022-11-24T07:08:28.898Z,100.00
2022-11-24T07:11:30.712Z,100.00
2022-11-24T07:14:33.258Z,100.00
2022-11-24T07:17:40.097Z,100.00
2022-11-24T07:20:41.714Z,100.00
2022-11-24T07:23:44.332Z,100.00
2022-11-24T07:26:45.927Z,100.00
2022-11-24T07:29:47.700Z,100.00
2022-11-24T07:32:49.502Z,100.00
2022-11-24T07:35:54.203Z,100.00
2022-11-24T07:38:55.833Z,100.00
2022-11-24T07:41:59.769Z,100.00
2022-11-24T07:45:01.489Z,100.00
2022-11-24T07:48:03.085Z,100.00
2022-11-24T07:51:05.814Z,100.00
2022-11-24T07:54:07.481Z,100.00
2022-11-24T07:57:09.135Z,100.00
2022-11-24T08:00:11.607Z,100.00
2022-11-24T08:03:13.355Z,100.00
2022-11-24T08:06:26.149Z,100.00
2022-11-24T08:09:29.204Z,100.00
2022-11-24T08:12:31.415Z,100.00
2022-11-24T08:15:33.054Z,100.00
2022-11-24T08:18:36.077Z,100.00
2022-11-24T08:21:38.457Z,100.00
2022-11-24T08:24:46.170Z,100.00
2022-11-24T08:27:47.828Z,100.00
2022-11-24T08:30:49.472Z,100.00
2022-11-24T08:33:51.120Z,100.00
2022-11-24T08:36:52.842Z,100.00
2022-11-24T08:39:54.685Z,100.00
2022-11-24T08:43:00.681Z,100.00
2022-11-24T08:46:17.093Z,100.00
2022-11-24T08:49:19.383Z,100.00
2022-11-24T08:52:21.023Z,100.00
2022-11-24T08:55:22.733Z,100.00
2022-11-24T08:58:24.474Z,100.00
2022-11-24T09:01:27.241Z,100.00
2022-11-24T09:04:29.493Z,100.00
2022-11-24T09:07:31.225Z,100.00
2022-11-24T09:10:33.170Z,99.80
2022-11-24T09:13:35.731Z,99.56
2022-11-24T09:16:37.837Z,99.30
2022-11-24T09:19:39.565Z,100.00
2022-11-24T09:22:43.056Z,98.81
2022-11-24T09:25:44.761Z,99.16
2022-11-24T09:28:48.208Z,99.90
2022-11-24T09:31:49.836Z,100.00
2022-11-24T09:34:51.634Z,100.00
2022-11-24T09:37:53.278Z,100.00
2022-11-24T09:40:55.983Z,100.00
2022-11-24T09:44:07.544Z,100.00
2022-11-24T09:47:27.476Z,99.69
2022-11-24T09:50:34.523Z,97.42
2022-11-24T09:53:42.143Z,97.51
2022-11-24T09:56:47.099Z,97.80
2022-11-24T09:59:48.883Z,96.79
2022-11-24T10:02:50.922Z,93.34
2022-11-24T10:05:53.753Z,94.90
2022-11-24T10:09:20.944Z,95.21
2022-11-24T10:12:56.349Z,95.15
2022-11-24T10:16:13.421Z,93.45
2022-11-24T10:19:44.709Z,93.75
2022-11-24T10:22:52.376Z,92.65
2022-11-24T10:25:59.935Z,92.72
2022-11-24T10:29:10.799Z,92.62
2022-11-24T10:32:18.173Z,90.88
2022-11-24T10:35:22.667Z,92.07
2022-11-24T10:39:16.328Z,90.42
2022-11-24T10:42:37.730Z,91.08
2022-11-24T10:45:40.181Z,88.83
2022-11-24T10:48:48.627Z,90.12
2022-11-24T10:52:08.279Z,88.08
2022-11-24T10:55:11.608Z,87.36
2022-11-24T10:58:17.819Z,85.58
2022-11-24T11:01:27.814Z,88.31
2022-11-24T11:04:35.864Z,86.12
2022-11-24T11:07:37.818Z,86.70
2022-11-24T11:10:40.611Z,85.13
2022-11-24T11:14:00.057Z,85.72
2022-11-24T11:17:30.974Z,85.25
2022-11-24T11:20:35.943Z,85.76
2022-11-24T11:23:40.241Z,86.63
2022-11-24T11:26:42.518Z,83.60
2022-11-24T11:36:47.862Z,84.34
2022-11-24T11:39:52.535Z,85.58
2022-11-24T11:43:27.519Z,79.55
2022-11-24T11:46:32.731Z,75.94
2022-11-24T11:49:39.419Z,70.61
2022-11-24T11:52:53.446Z,69.87
2022-11-24T11:56:26.802Z,67.96
2022-11-24T11:59:59.879Z,68.87
2022-11-24T12:03:40.951Z,68.13
2022-11-24T12:07:28.622Z,66.14
2022-11-24T12:11:19.606Z,65.82
2022-11-24T12:14:46.944Z,66.43
2022-11-24T12:18:13.556Z,66.12
2022-11-24T12:22:32.293Z,67.80
2022-11-24T12:25:46.885Z,69.68
2022-11-24T12:29:26.529Z,67.28
2022-11-24T12:32:57.327Z,68.69
2022-11-24T12:36:10.377Z,68.10
2022-11-24T12:39:39.730Z,69.22
2022-11-24T12:42:52.819Z,66.90
2022-11-24T12:46:02.125Z,66.65
2022-11-24T12:49:25.685Z,67.24
2022-11-24T12:52:57.225Z,68.35
2022-11-24T12:56:17.674Z,67.19
2022-11-24T12:59:22.891Z,66.11
2022-11-24T13:02:32.857Z,66.55
2022-11-24T13:05:58.898Z,63.02
2022-11-24T13:09:09.476Z,65.59
2022-11-24T13:12:14.476Z,62.32
2022-11-24T13:15:43.593Z,64.48
2022-11-24T13:18:58.325Z,61.01
2022-11-24T13:22:09.850Z,64.63
2022-11-24T13:25:20.211Z,62.54
2022-11-24T13:29:08.867Z,62.90
2022-11-24T13:32:14.945Z,64.80
2022-11-24T13:35:17.277Z,63.68
2022-11-24T13:38:43.824Z,63.53
2022-11-24T13:41:48.630Z,67.31
2022-11-24T13:45:03.630Z,64.47
2022-11-24T13:48:22.574Z,63.68
2022-11-24T13:51:28.900Z,61.91
2022-11-24T13:54:30.906Z,63.56
2022-11-24T13:57:38.900Z,59.71
2022-11-24T14:01:02.672Z,61.57
2022-11-24T14:04:33.997Z,61.86
2022-11-24T14:07:35.798Z,62.43
2022-11-24T14:10:41.279Z,62.24
2022-11-24T14:13:44.944Z,72.26
2022-11-24T14:16:46.825Z,77.63
2022-11-24T14:19:54.103Z,78.62
2022-11-24T14:22:55.780Z,79.91
2022-11-24T14:25:58.289Z,81.40
2022-11-24T14:29:13.884Z,84.09
2022-11-24T14:32:18.124Z,84.34
2022-11-24T14:35:24.384Z,82.13
2022-11-24T14:38:26.127Z,81.76
2022-11-24T14:41:28.476Z,81.53
2022-11-24T14:44:34.350Z,84.96
2022-11-24T14:47:44.536Z,86.94
2022-11-24T14:50:46.651Z,86.44
2022-11-24T14:53:55.240Z,87.07
2022-11-24T14:56:56.851Z,85.33
2022-11-24T15:00:23.545Z,85.22
2022-11-24T15:03:40.086Z,85.98
2022-11-24T15:06:45.257Z,84.83
2022-11-24T15:09:59.073Z,84.08
2022-11-24T15:13:03.607Z,83.10
2022-11-24T15:16:17.459Z,84.41
2022-11-24T15:19:19.183Z,85.02
2022-11-24T15:22:27.734Z,87.01
2022-11-24T15:25:33.379Z,86.13
2022-11-24T15:28:35.206Z,87.70
2022-11-24T15:31:37.312Z,88.25
2022-11-24T15:34:39.120Z,88.35
2022-11-24T15:37:40.694Z,89.30
2022-11-24T15:40:45.553Z,89.90
2022-11-24T15:43:47.720Z,91.75
2022-11-24T15:46:49.408Z,91.53
2022-11-24T15:49:51.080Z,91.17
2022-11-24T15:52:52.804Z,92.09
2022-11-24T15:55:57.167Z,95.01
2022-11-24T15:58:59.057Z,96.46
2022-11-24T16:02:00.714Z,94.10
2022-11-24T16:05:02.294Z,95.58
2022-11-24T16:08:04.811Z,95.17
2022-11-24T16:11:06.748Z,95.39
2022-11-24T16:14:08.403Z,95.68
2022-11-24T16:17:10.056Z,95.78
2022-11-24T16:20:11.902Z,95.90
2022-11-24T16:23:13.555Z,97.03
2022-11-24T16:26:15.097Z,97.59
2022-11-24T16:29:16.887Z,95.53
2022-11-24T16:32:18.528Z,94.58
2022-11-24T16:35:20.704Z,94.31
2022-11-24T16:38:22.296Z,91.10
2022-11-24T16:41:23.971Z,92.31
2022-11-24T16:44:25.576Z,94.40
2022-11-24T16:47:27.364Z,94.19
2022-11-24T16:50:29.062Z,95.14
2022-11-24T16:53:30.639Z,95.60
2022-11-24T16:56:33.412Z,95.14
2022-11-24T16:59:35.088Z,94.86
2022-11-24T17:02:36.844Z,93.32
2022-11-24T17:05:38.518Z,93.58
2022-11-24T17:08:41.115Z,93.24
2022-11-24T17:11:42.731Z,92.90
2022-11-24T17:14:52.623Z,92.56
2022-11-24T17:21:27.861Z,94.89
2022-11-24T17:24:29.718Z,93.90
2022-11-24T17:27:31.622Z,93.25
2022-11-24T17:30:33.548Z,93.31
2022-11-24T17:33:35.878Z,93.70
2022-11-24T17:36:37.692Z,93.31
2022-11-24T17:39:39.389Z,93.41
2022-11-24T17:42:41.024Z,95.07
2022-11-24T17:45:42.963Z,93.69
2022-11-24T17:48:44.817Z,93.43
2022-11-24T17:51:50.343Z,92.46
2022-11-24T17:54:51.879Z,92.17
2022-11-24T17:57:53.488Z,92.46
2022-11-24T18:00:55.268Z,92.01
2022-11-24T18:03:57.403Z,93.13
2022-11-24T18:06:59.042Z,92.82
2022-11-24T18:10:00.766Z,93.31
2022-11-24T18:13:02.376Z,93.09
2022-11-24T18:16:07.265Z,93.88
2022-11-24T18:19:10.874Z,94.26
2022-11-24T18:22:12.815Z,95.13
2022-11-24T18:25:14.417Z,95.75
2022-11-24T18:28:15.999Z,94.23
2022-11-24T18:31:18.663Z,94.75
2022-11-24T18:34:20.324Z,96.11
2022-11-24T18:37:21.880Z,95.40
2022-11-24T18:40:23.554Z,96.00
2022-11-24T18:43:27.817Z,96.09
2022-11-24T18:46:29.499Z,95.93
2022-11-24T18:49:34.076Z,95.49
2022-11-24T18:52:35.658Z,94.89
2022-11-24T18:55:37.382Z,95.00
2022-11-24T18:58:38.974Z,93.71
2022-11-24T19:01:40.626Z,95.29
2022-11-24T19:04:42.301Z,94.88
2022-11-24T19:07:44.036Z,94.27
2022-11-24T19:10:45.827Z,94.91
2022-11-24T19:13:49.173Z,96.73
2022-11-24T19:16:51.049Z,96.86
2022-11-24T19:19:52.905Z,96.23
2022-11-24T19:22:54.801Z,95.78
2022-11-24T19:26:00.870Z,96.36
2022-11-24T19:29:03.817Z,96.24
2022-11-24T19:32:05.486Z,96.24
2022-11-24T19:35:07.542Z,95.65
2022-11-24T19:38:13.574Z,92.90
2022-11-24T19:41:19.290Z,94.29
2022-11-24T19:44:21.008Z,97.10
2022-11-24T19:47:22.661Z,97.92
2022-11-24T19:50:24.274Z,96.54
2022-11-24T19:53:25.934Z,94.22
2022-11-24T19:56:29.762Z,93.57
2022-11-24T19:59:31.530Z,94.08
2022-11-24T20:02:33.139Z,93.62
2022-11-24T20:05:34.820Z,92.46
2022-11-24T20:08:37.730Z,93.47
2022-11-24T20:11:40.398Z,92.46
2022-11-24T20:14:41.990Z,93.29
2022-11-24T20:17:43.595Z,94.22
2022-11-24T20:20:45.225Z,94.34
2022-11-24T20:23:53.547Z,94.26
2022-11-24T20:26:58.287Z,93.43
2022-11-24T20:29:59.882Z,91.56
2022-11-24T20:33:01.443Z,95.05
2022-11-24T20:36:14.365Z,95.81
2022-11-24T20:39:22.483Z,94.29
2022-11-24T20:42:24.024Z,95.44
2022-11-24T20:45:25.894Z,95.46
2022-11-24T20:48:27.673Z,95.30
2022-11-24T20:51:35.058Z,94.99
2022-11-24T20:54:36.995Z,96.43
2022-11-24T20:57:38.817Z,96.34
2022-11-24T21:00:40.543Z,96.57
2022-11-24T21:03:43.498Z,96.57
2022-11-24T21:06:45.441Z,96.23
2022-11-24T21:09:47.060Z,97.02
2022-11-24T21:12:48.583Z,96.71
2022-11-24T21:15:50.881Z,96.11
2022-11-24T21:18:55.805Z,97.19
2022-11-24T21:21:57.440Z,97.03
2022-11-24T21:24:59.073Z,98.49
2022-11-24T21:28:00.661Z,98.95
2022-11-24T21:31:07.379Z,99.04
2022-11-24T21:34:09.455Z,98.62
2022-11-24T21:37:11.044Z,97.74
2022-11-24T21:40:14.951Z,97.30
2022-11-24T21:43:16.518Z,96.12
2022-11-24T21:46:18.343Z,96.77
2022-11-24T21:49:20.060Z,96.85
2022-11-24T21:52:22.391Z,96.78
2022-11-24T21:55:24.033Z,96.80
2022-11-24T21:58:26.618Z,97.19
2022-11-24T22:01:29.448Z,96.89
2022-11-24T22:04:31.099Z,95.79
2022-11-24T22:07:33.175Z,94.43
2022-11-24T22:10:34.788Z,93.03
2022-11-24T22:13:36.528Z,95.19
2022-11-24T22:16:39.054Z,93.58
2022-11-24T22:19:41.303Z,93.35
2022-11-24T22:22:42.958Z,94.98
2022-11-24T22:25:44.698Z,97.17
2022-11-24T22:28:47.277Z,97.51
2022-11-24T22:31:49.138Z,97.17
2022-11-24T22:34:50.860Z,98.13
2022-11-24T22:37:52.392Z,98.55
2022-11-24T22:40:54.075Z,100.00
2022-11-24T22:43:55.741Z,100.00
2022-11-24T22:46:59.888Z,100.00
2022-11-24T22:50:01.499Z,99.92
2022-11-24T22:53:03.310Z,99.95
2022-11-24T22:56:07.562Z,99.29
2022-11-24T22:59:09.117Z,100.00
2022-11-24T23:02:10.718Z,100.00
2022-11-24T23:05:14.719Z,100.00
2022-11-24T23:08:19.671Z,100.00
2022-11-24T23:11:30.691Z,100.00
2022-11-24T23:14:33.494Z,100.00
2022-11-24T23:17:35.227Z,100.00
2022-11-24T23:20:36.764Z,100.00
2022-11-24T23:23:38.715Z,100.00
2022-11-24T23:26:41.353Z,100.00
2022-11-24T23:29:42.963Z,100.00
2022-11-24T23:32:44.553Z,100.00
2022-11-24T23:35:46.158Z,100.00
2022-11-24T23:38:48.594Z,100.00
2022-11-24T23:41:50.195Z,99.52
2022-11-24T23:44:51.849Z,98.99
2022-11-24T23:47:53.936Z,99.34
2022-11-24T23:50:55.569Z,100.00
2022-11-24T23:53:57.793Z,100.00
2022-11-24T23:56:59.871Z,97.39
